Terminal Aerodrome Forecast
Issued by NWS

Home | Current Version | Previous Version | Text Only | Print | Product List | Glossary On
Versions: 1 2 3 4 5 6 7 8 9 10 11 12 13 14 15 16
000
FTAK31 PANC 272210 AAA
TAFADU
TAF AMD
PADU 272210Z 2722/2818 15014KT P6SM VCSH SCT015 BKN045
     FM280500 10010KT 4SM -RA BR SCT005 BKN015=

USA.gov is the U.S. government's official web portal to all federal, state and local government web resources and services.